sensor_id;sensor_type;location;lat;lon;timestamp;temperature;humidity
3051;DHT22;1535;51.098;6.414;2022-07-29T00:00:22;19.70;81.30
3051;DHT22;1535;51.098;6.414;2022-07-29T00:02:49;19.60;81.40
3051;DHT22;1535;51.098;6.414;2022-07-29T00:05:16;19.60;81.50
3051;DHT22;1535;51.098;6.414;2022-07-29T00:07:43;19.70;81.50
3051;DHT22;1535;51.098;6.414;2022-07-29T00:10:11;19.70;81.20
3051;DHT22;1535;51.098;6.414;2022-07-29T00:12:39;19.70;81.20
3051;DHT22;1535;51.098;6.414;2022-07-29T00:15:07;19.70;81.20
3051;DHT22;1535;51.098;6.414;2022-07-29T00:17:34;19.70;81.70
3051;DHT22;1535;51.098;6.414;2022-07-29T00:20:01;19.60;81.70
3051;DHT22;1535;51.098;6.414;2022-07-29T00:22:28;19.60;81.90
3051;DHT22;1535;51.098;6.414;2022-07-29T00:24:55;19.60;82.30
3051;DHT22;1535;51.098;6.414;2022-07-29T00:27:22;19.60;81.90
3051;DHT22;1535;51.098;6.414;2022-07-29T00:29:51;19.50;82.70
3051;DHT22;1535;51.098;6.414;2022-07-29T00:32:17;19.50;83.00
3051;DHT22;1535;51.098;6.414;2022-07-29T00:34:45;19.60;82.60
3051;DHT22;1535;51.098;6.414;2022-07-29T00:37:29;19.50;83.40
3051;DHT22;1535;51.098;6.414;2022-07-29T00:39:56;19.50;83.90
3051;DHT22;1535;51.098;6.414;2022-07-29T00:42:23;19.40;84.40
3051;DHT22;1535;51.098;6.414;2022-07-29T00:44:53;19.40;84.70
3051;DHT22;1535;51.098;6.414;2022-07-29T00:47:20;19.40;84.70
3051;DHT22;1535;51.098;6.414;2022-07-29T00:49:48;19.60;84.20
3051;DHT22;1535;51.098;6.414;2022-07-29T00:52:14;19.40;85.30
3051;DHT22;1535;51.098;6.414;2022-07-29T00:54:42;19.30;85.30
3051;DHT22;1535;51.098;6.414;2022-07-29T00:57:10;19.20;86.30
3051;DHT22;1535;51.098;6.414;2022-07-29T00:59:38;19.10;86.90
3051;DHT22;1535;51.098;6.414;2022-07-29T01:02:07;19.00;87.50
3051;DHT22;1535;51.098;6.414;2022-07-29T01:04:34;18.90;88.60
3051;DHT22;1535;51.098;6.414;2022-07-29T01:07:02;19.00;89.10
3051;DHT22;1535;51.098;6.414;2022-07-29T01:09:30;19.00;89.50
3051;DHT22;1535;51.098;6.414;2022-07-29T01:11:58;19.00;89.60
3051;DHT22;1535;51.098;6.414;2022-07-29T01:14:26;19.00;90.10
3051;DHT22;1535;51.098;6.414;2022-07-29T01:16:58;19.00;90.40
3051;DHT22;1535;51.098;6.414;2022-07-29T01:19:44;19.00;90.10
3051;DHT22;1535;51.098;6.414;2022-07-29T01:22:25;19.00;90.70
3051;DHT22;1535;51.098;6.414;2022-07-29T01:25:13;19.00;90.80
3051;DHT22;1535;51.098;6.414;2022-07-29T01:27:52;19.00;90.90
3051;DHT22;1535;51.098;6.414;2022-07-29T01:30:30;19.00;91.20
3051;DHT22;1535;51.098;6.414;2022-07-29T01:33:01;19.00;91.30
3051;DHT22;1535;51.098;6.414;2022-07-29T01:35:31;18.90;91.90
3051;DHT22;1535;51.098;6.414;2022-07-29T01:38:04;18.80;92.10
3051;DHT22;1535;51.098;6.414;2022-07-29T01:40:35;18.80;92.80
3051;DHT22;1535;51.098;6.414;2022-07-29T01:43:09;18.70;92.60
3051;DHT22;1535;51.098;6.414;2022-07-29T01:45:40;18.70;92.90
3051;DHT22;1535;51.098;6.414;2022-07-29T01:48:13;18.60;93.10
3051;DHT22;1535;51.098;6.414;2022-07-29T01:50:47;18.60;93.40
3051;DHT22;1535;51.098;6.414;2022-07-29T01:53:22;18.60;93.50
3051;DHT22;1535;51.098;6.414;2022-07-29T01:55:52;18.50;93.70
3051;DHT22;1535;51.098;6.414;2022-07-29T01:58:22;18.50;93.90
3051;DHT22;1535;51.098;6.414;2022-07-29T02:00:51;18.50;94.10
3051;DHT22;1535;51.098;6.414;2022-07-29T02:03:20;18.50;94.40
3051;DHT22;1535;51.098;6.414;2022-07-29T02:05:48;18.50;94.60
3051;DHT22;1535;51.098;6.414;2022-07-29T02:08:18;18.50;94.50
3051;DHT22;1535;51.098;6.414;2022-07-29T02:10:46;18.50;94.50
3051;DHT22;1535;51.098;6.414;2022-07-29T02:13:14;18.50;94.20
3051;DHT22;1535;51.098;6.414;2022-07-29T02:15:44;18.50;94.50
3051;DHT22;1535;51.098;6.414;2022-07-29T02:18:16;18.50;94.20
3051;DHT22;1535;51.098;6.414;2022-07-29T02:20:45;18.50;94.30
3051;DHT22;1535;51.098;6.414;2022-07-29T02:23:15;18.50;94.20
3051;DHT22;1535;51.098;6.414;2022-07-29T02:25:44;18.50;94.40
3051;DHT22;1535;51.098;6.414;2022-07-29T02:28:13;18.50;94.30
3051;DHT22;1535;51.098;6.414;2022-07-29T02:30:42;18.40;94.50
3051;DHT22;1535;51.098;6.414;2022-07-29T02:33:14;18.50;94.80
3051;DHT22;1535;51.098;6.414;2022-07-29T02:35:43;18.50;94.80
3051;DHT22;1535;51.098;6.414;2022-07-29T02:38:13;18.50;94.90
3051;DHT22;1535;51.098;6.414;2022-07-29T02:41:00;18.50;95.00
3051;DHT22;1535;51.098;6.414;2022-07-29T02:43:29;18.50;95.40
3051;DHT22;1535;51.098;6.414;2022-07-29T02:45:58;18.50;95.70
3051;DHT22;1535;51.098;6.414;2022-07-29T02:48:36;18.40;96.20
3051;DHT22;1535;51.098;6.414;2022-07-29T02:51:07;18.40;96.50
3051;DHT22;1535;51.098;6.414;2022-07-29T02:53:36;18.40;97.00
3051;DHT22;1535;51.098;6.414;2022-07-29T02:56:09;18.40;97.30
3051;DHT22;1535;51.098;6.414;2022-07-29T02:58:40;18.30;97.60
3051;DHT22;1535;51.098;6.414;2022-07-29T03:01:11;18.30;97.90
3051;DHT22;1535;51.098;6.414;2022-07-29T03:03:55;18.20;99.90
3051;DHT22;1535;51.098;6.414;2022-07-29T03:06:25;17.90;99.90
3051;DHT22;1535;51.098;6.414;2022-07-29T03:08:54;17.50;99.90
3051;DHT22;1535;51.098;6.414;2022-07-29T03:11:22;17.30;99.90
3051;DHT22;1535;51.098;6.414;2022-07-29T03:13:50;17.20;99.90
3051;DHT22;1535;51.098;6.414;2022-07-29T03:16:18;17.00;99.90
3051;DHT22;1535;51.098;6.414;2022-07-29T03:18:46;16.80;99.90
3051;DHT22;1535;51.098;6.414;2022-07-29T03:21:17;16.70;99.90
3051;DHT22;1535;51.098;6.414;2022-07-29T03:23:45;16.60;99.90
3051;DHT22;1535;51.098;6.414;2022-07-29T03:26:13;16.50;99.90
3051;DHT22;1535;51.098;6.414;2022-07-29T03:28:40;16.30;99.90
3051;DHT22;1535;51.098;6.414;2022-07-29T03:31:08;16.00;99.90
3051;DHT22;1535;51.098;6.414;2022-07-29T03:33:35;15.80;99.90
3051;DHT22;1535;51.098;6.414;2022-07-29T03:36:02;15.70;99.90
3051;DHT22;1535;51.098;6.414;2022-07-29T03:38:33;15.60;99.90
3051;DHT22;1535;51.098;6.414;2022-07-29T03:41:03;15.60;99.90
3051;DHT22;1535;51.098;6.414;2022-07-29T03:43:34;15.50;99.90
3051;DHT22;1535;51.098;6.414;2022-07-29T03:46:05;15.50;99.90
3051;DHT22;1535;51.098;6.414;2022-07-29T03:48:36;15.40;99.90
3051;DHT22;1535;51.098;6.414;2022-07-29T03:51:03;15.40;99.90
3051;DHT22;1535;51.098;6.414;2022-07-29T03:53:32;15.40;99.90
3051;DHT22;1535;51.098;6.414;2022-07-29T03:56:02;15.40;99.90
3051;DHT22;1535;51.098;6.414;2022-07-29T03:58:30;15.50;99.90
3051;DHT22;1535;51.098;6.414;2022-07-29T04:00:58;15.50;99.90
3051;DHT22;1535;51.098;6.414;2022-07-29T04:03:26;15.50;99.90
3051;DHT22;1535;51.098;6.414;2022-07-29T04:06:03;15.50;99.90
3051;DHT22;1535;51.098;6.414;2022-07-29T04:08:32;15.40;99.90
3051;DHT22;1535;51.098;6.414;2022-07-29T04:11:00;15.50;99.90
3051;DHT22;1535;51.098;6.414;2022-07-29T04:13:26;15.50;99.90
3051;DHT22;1535;51.098;6.414;2022-07-29T04:15:53;15.50;99.90
3051;DHT22;1535;51.098;6.414;2022-07-29T04:18:20;15.50;99.90
3051;DHT22;1535;51.098;6.414;2022-07-29T04:20:47;15.50;99.90
3051;DHT22;1535;51.098;6.414;2022-07-29T04:23:14;15.50;99.90
3051;DHT22;1535;51.098;6.414;2022-07-29T04:25:43;15.60;99.90
3051;DHT22;1535;51.098;6.414;2022-07-29T04:28:10;15.60;99.90
3051;DHT22;1535;51.098;6.414;2022-07-29T04:30:37;15.60;99.90
3051;DHT22;1535;51.098;6.414;2022-07-29T04:33:06;15.60;99.90
3051;DHT22;1535;51.098;6.414;2022-07-29T04:35:35;15.60;99.90
3051;DHT22;1535;51.098;6.414;2022-07-29T04:38:03;15.50;99.90
3051;DHT22;1535;51.098;6.414;2022-07-29T04:40:30;15.60;99.90
3051;DHT22;1535;51.098;6.414;2022-07-29T04:43:00;15.50;99.90
3051;DHT22;1535;51.098;6.414;2022-07-29T04:45:27;15.60;99.90
3051;DHT22;1535;51.098;6.414;2022-07-29T04:47:54;15.70;99.90
3051;DHT22;1535;51.098;6.414;2022-07-29T04:50:21;15.70;99.90
3051;DHT22;1535;51.098;6.414;2022-07-29T04:52:49;15.80;99.90
3051;DHT22;1535;51.098;6.414;2022-07-29T04:55:16;15.70;99.90
3051;DHT22;1535;51.098;6.414;2022-07-29T04:57:43;15.60;99.90
3051;DHT22;1535;51.098;6.414;2022-07-29T05:00:12;15.50;99.90
3051;DHT22;1535;51.098;6.414;2022-07-29T05:02:39;15.50;99.90
3051;DHT22;1535;51.098;6.414;2022-07-29T05:05:07;15.50;99.90
3051;DHT22;1535;51.098;6.414;2022-07-29T05:07:34;15.50;99.90
3051;DHT22;1535;51.098;6.414;2022-07-29T05:10:00;15.50;99.90
3051;DHT22;1535;51.098;6.414;2022-07-29T05:12:27;15.50;99.90
3051;DHT22;1535;51.098;6.414;2022-07-29T05:14:54;15.60;99.90
3051;DHT22;1535;51.098;6.414;2022-07-29T05:17:23;15.60;99.90
3051;DHT22;1535;51.098;6.414;2022-07-29T05:19:51;15.60;99.90
3051;DHT22;1535;51.098;6.414;2022-07-29T05:22:18;15.60;99.90
3051;DHT22;1535;51.098;6.414;2022-07-29T05:24:45;15.60;99.90
3051;DHT22;1535;51.098;6.414;2022-07-29T05:27:13;15.60;99.90
3051;DHT22;1535;51.098;6.414;2022-07-29T05:29:40;15.60;99.90
3051;DHT22;1535;51.098;6.414;2022-07-29T05:32:06;15.70;99.90
3051;DHT22;1535;51.098;6.414;2022-07-29T05:34:35;15.70;99.90
3051;DHT22;1535;51.098;6.414;2022-07-29T05:37:02;15.70;99.90
3051;DHT22;1535;51.098;6.414;2022-07-29T05:39:29;15.80;99.90
3051;DHT22;1535;51.098;6.414;2022-07-29T05:41:56;15.90;99.90
3051;DHT22;1535;51.098;6.414;2022-07-29T05:44:23;15.90;99.90
3051;DHT22;1535;51.098;6.414;2022-07-29T05:46:49;16.00;99.90
3051;DHT22;1535;51.098;6.414;2022-07-29T05:49:16;16.00;99.90
3051;DHT22;1535;51.098;6.414;2022-07-29T05:51:44;16.00;99.90
3051;DHT22;1535;51.098;6.414;2022-07-29T05:54:12;16.10;99.90
3051;DHT22;1535;51.098;6.414;2022-07-29T05:56:53;16.10;99.90
3051;DHT22;1535;51.098;6.414;2022-07-29T05:59:20;16.00;99.90
3051;DHT22;1535;51.098;6.414;2022-07-29T06:01:46;16.10;99.90
3051;DHT22;1535;51.098;6.414;2022-07-29T06:04:13;16.30;99.90
3051;DHT22;1535;51.098;6.414;2022-07-29T06:06:40;16.30;99.90
3051;DHT22;1535;51.098;6.414;2022-07-29T06:09:08;16.20;99.90
3051;DHT22;1535;51.098;6.414;2022-07-29T06:11:36;16.20;99.90
3051;DHT22;1535;51.098;6.414;2022-07-29T06:14:03;16.30;99.90
3051;DHT22;1535;51.098;6.414;2022-07-29T06:16:30;16.30;99.90
3051;DHT22;1535;51.098;6.414;2022-07-29T06:18:57;16.40;99.90
3051;DHT22;1535;51.098;6.414;2022-07-29T06:21:24;16.40;99.90
3051;DHT22;1535;51.098;6.414;2022-07-29T06:23:51;16.40;99.90
3051;DHT22;1535;51.098;6.414;2022-07-29T06:26:19;16.50;99.90
3051;DHT22;1535;51.098;6.414;2022-07-29T06:28:46;16.50;99.90
3051;DHT22;1535;51.098;6.414;2022-07-29T06:31:13;16.30;99.90
3051;DHT22;1535;51.098;6.414;2022-07-29T06:33:40;16.10;99.90
3051;DHT22;1535;51.098;6.414;2022-07-29T06:36:07;16.00;99.90
3051;DHT22;1535;51.098;6.414;2022-07-29T06:38:34;16.00;99.90
3051;DHT22;1535;51.098;6.414;2022-07-29T06:41:01;16.00;99.90
3051;DHT22;1535;51.098;6.414;2022-07-29T06:43:32;16.00;99.90
3051;DHT22;1535;51.098;6.414;2022-07-29T06:46:01;16.00;99.90
3051;DHT22;1535;51.098;6.414;2022-07-29T06:48:29;16.10;99.90
3051;DHT22;1535;51.098;6.414;2022-07-29T06:50:56;16.20;99.90
3051;DHT22;1535;51.098;6.414;2022-07-29T06:53:23;16.30;99.90
3051;DHT22;1535;51.098;6.414;2022-07-29T06:55:50;16.40;99.90
3051;DHT22;1535;51.098;6.414;2022-07-29T06:58:17;16.50;99.90
3051;DHT22;1535;51.098;6.414;2022-07-29T07:00:47;16.60;99.90
3051;DHT22;1535;51.098;6.414;2022-07-29T07:03:14;16.70;99.90
3051;DHT22;1535;51.098;6.414;2022-07-29T07:05:41;16.80;99.90
3051;DHT22;1535;51.098;6.414;2022-07-29T07:08:08;16.70;99.90
3051;DHT22;1535;51.098;6.414;2022-07-29T07:10:35;16.70;99.90
3051;DHT22;1535;51.098;6.414;2022-07-29T07:13:02;16.80;99.90
3051;DHT22;1535;51.098;6.414;2022-07-29T07:15:30;16.80;99.90
3051;DHT22;1535;51.098;6.414;2022-07-29T07:17:58;16.90;99.90
3051;DHT22;1535;51.098;6.414;2022-07-29T07:20:25;16.80;99.90
3051;DHT22;1535;51.098;6.414;2022-07-29T07:22:52;16.90;99.90
3051;DHT22;1535;51.098;6.414;2022-07-29T07:25:19;17.00;99.90
3051;DHT22;1535;51.098;6.414;2022-07-29T07:27:45;17.10;99.90
3051;DHT22;1535;51.098;6.414;2022-07-29T07:30:13;17.30;99.90
3051;DHT22;1535;51.098;6.414;2022-07-29T07:32:40;17.50;99.90
3051;DHT22;1535;51.098;6.414;2022-07-29T07:35:09;17.60;99.90
3051;DHT22;1535;51.098;6.414;2022-07-29T07:37:37;17.80;99.90
3051;DHT22;1535;51.098;6.414;2022-07-29T07:40:07;18.10;99.90
3051;DHT22;1535;51.098;6.414;2022-07-29T07:42:34;18.20;99.90
3051;DHT22;1535;51.098;6.414;2022-07-29T07:45:01;18.20;99.90
3051;DHT22;1535;51.098;6.414;2022-07-29T07:47:27;18.10;99.90
3051;DHT22;1535;51.098;6.414;2022-07-29T07:49:54;18.00;99.90
3051;DHT22;1535;51.098;6.414;2022-07-29T07:52:22;18.10;99.90
3051;DHT22;1535;51.098;6.414;2022-07-29T07:54:49;18.00;99.90
3051;DHT22;1535;51.098;6.414;2022-07-29T07:57:17;18.10;99.90
3051;DHT22;1535;51.098;6.414;2022-07-29T07:59:44;18.00;99.90
3051;DHT22;1535;51.098;6.414;2022-07-29T08:02:11;18.00;99.90
3051;DHT22;1535;51.098;6.414;2022-07-29T08:04:38;18.10;99.90
3051;DHT22;1535;51.098;6.414;2022-07-29T08:07:06;18.20;99.90
3051;DHT22;1535;51.098;6.414;2022-07-29T08:09:36;18.30;99.90
3051;DHT22;1535;51.098;6.414;2022-07-29T08:12:03;18.30;99.90
3051;DHT22;1535;51.098;6.414;2022-07-29T08:14:31;18.40;99.90
3051;DHT22;1535;51.098;6.414;2022-07-29T08:16:58;18.50;99.90
3051;DHT22;1535;51.098;6.414;2022-07-29T08:19:24;18.50;99.90
3051;DHT22;1535;51.098;6.414;2022-07-29T08:21:51;18.60;99.90
3051;DHT22;1535;51.098;6.414;2022-07-29T08:24:18;18.80;99.90
3051;DHT22;1535;51.098;6.414;2022-07-29T08:27:04;18.90;99.90
3051;DHT22;1535;51.098;6.414;2022-07-29T08:29:31;19.20;99.90
3051;DHT22;1535;51.098;6.414;2022-07-29T08:31:58;19.50;99.90
3051;DHT22;1535;51.098;6.414;2022-07-29T08:34:25;19.70;99.90
3051;DHT22;1535;51.098;6.414;2022-07-29T08:36:51;19.90;99.90
3051;DHT22;1535;51.098;6.414;2022-07-29T08:39:18;20.10;99.90
3051;DHT22;1535;51.098;6.414;2022-07-29T08:41:45;20.30;99.90
3051;DHT22;1535;51.098;6.414;2022-07-29T08:44:15;20.40;99.90
3051;DHT22;1535;51.098;6.414;2022-07-29T08:46:42;20.40;99.90
3051;DHT22;1535;51.098;6.414;2022-07-29T08:49:09;20.50;99.90
3051;DHT22;1535;51.098;6.414;2022-07-29T08:51:38;20.70;99.90
3051;DHT22;1535;51.098;6.414;2022-07-29T08:54:06;21.00;99.90
3051;DHT22;1535;51.098;6.414;2022-07-29T08:56:34;21.20;99.90
3051;DHT22;1535;51.098;6.414;2022-07-29T08:59:03;21.10;99.90
3051;DHT22;1535;51.098;6.414;2022-07-29T09:01:33;21.00;99.90
3051;DHT22;1535;51.098;6.414;2022-07-29T09:04:03;21.10;99.90
3051;DHT22;1535;51.098;6.414;2022-07-29T09:06:32;21.70;99.90
3051;DHT22;1535;51.098;6.414;2022-07-29T09:09:01;22.10;99.90
3051;DHT22;1535;51.098;6.414;2022-07-29T09:11:29;23.00;99.90
3051;DHT22;1535;51.098;6.414;2022-07-29T09:13:58;24.00;99.90
3051;DHT22;1535;51.098;6.414;2022-07-29T09:16:25;24.70;99.90
3051;DHT22;1535;51.098;6.414;2022-07-29T09:18:53;25.20;99.90
3051;DHT22;1535;51.098;6.414;2022-07-29T09:21:20;25.90;99.90
3051;DHT22;1535;51.098;6.414;2022-07-29T09:24:07;26.10;99.90
3051;DHT22;1535;51.098;6.414;2022-07-29T09:26:35;26.80;99.90
3051;DHT22;1535;51.098;6.414;2022-07-29T09:29:09;26.50;99.90
3051;DHT22;1535;51.098;6.414;2022-07-29T09:31:38;25.30;99.90
3051;DHT22;1535;51.098;6.414;2022-07-29T09:34:11;25.00;99.90
3051;DHT22;1535;51.098;6.414;2022-07-29T09:36:43;24.70;99.90
3051;DHT22;1535;51.098;6.414;2022-07-29T09:39:10;25.20;99.90
3051;DHT22;1535;51.098;6.414;2022-07-29T09:41:45;25.70;99.90
3051;DHT22;1535;51.098;6.414;2022-07-29T09:44:12;25.80;99.90
3051;DHT22;1535;51.098;6.414;2022-07-29T09:46:40;25.80;99.10
3051;DHT22;1535;51.098;6.414;2022-07-29T09:49:10;26.50;99.90
3051;DHT22;1535;51.098;6.414;2022-07-29T09:51:38;27.00;97.40
3051;DHT22;1535;51.098;6.414;2022-07-29T09:54:20;28.00;97.80
3051;DHT22;1535;51.098;6.414;2022-07-29T09:56:48;28.00;92.20
3051;DHT22;1535;51.098;6.414;2022-07-29T09:59:15;27.80;91.30
3051;DHT22;1535;51.098;6.414;2022-07-29T10:01:42;27.30;91.50
3051;DHT22;1535;51.098;6.414;2022-07-29T10:04:11;26.60;92.40
3051;DHT22;1535;51.098;6.414;2022-07-29T10:06:55;26.40;94.10
3051;DHT22;1535;51.098;6.414;2022-07-29T10:09:23;26.30;93.90
3051;DHT22;1535;51.098;6.414;2022-07-29T10:12:06;25.60;95.10
3051;DHT22;1535;51.098;6.414;2022-07-29T10:14:34;25.00;95.30
3051;DHT22;1535;51.098;6.414;2022-07-29T10:17:02;24.90;95.50
3051;DHT22;1535;51.098;6.414;2022-07-29T10:19:32;25.00;95.50
3051;DHT22;1535;51.098;6.414;2022-07-29T10:21:59;25.10;96.00
3051;DHT22;1535;51.098;6.414;2022-07-29T10:24:29;25.40;96.10
3051;DHT22;1535;51.098;6.414;2022-07-29T10:26:58;25.30;96.50
3051;DHT22;1535;51.098;6.414;2022-07-29T10:29:26;24.90;97.20
3051;DHT22;1535;51.098;6.414;2022-07-29T10:32:06;25.10;98.10
3051;DHT22;1535;51.098;6.414;2022-07-29T10:34:50;25.50;98.10
3051;DHT22;1535;51.098;6.414;2022-07-29T10:37:26;25.50;96.20
3051;DHT22;1535;51.098;6.414;2022-07-29T10:40:00;25.70;98.00
3051;DHT22;1535;51.098;6.414;2022-07-29T10:42:50;26.00;96.00
3051;DHT22;1535;51.098;6.414;2022-07-29T10:45:19;26.20;96.00
3051;DHT22;1535;51.098;6.414;2022-07-29T10:47:46;26.80;96.30
3051;DHT22;1535;51.098;6.414;2022-07-29T10:50:15;26.90;95.40
3051;DHT22;1535;51.098;6.414;2022-07-29T10:53:02;26.30;96.00
3051;DHT22;1535;51.098;6.414;2022-07-29T10:55:31;26.00;96.20
3051;DHT22;1535;51.098;6.414;2022-07-29T10:58:12;25.90;95.80
3051;DHT22;1535;51.098;6.414;2022-07-29T11:00:38;26.00;96.40
3051;DHT22;1535;51.098;6.414;2022-07-29T11:03:05;25.80;95.20
3051;DHT22;1535;51.098;6.414;2022-07-29T11:05:52;25.50;96.00
3051;DHT22;1535;51.098;6.414;2022-07-29T11:08:24;25.40;96.10
3051;DHT22;1535;51.098;6.414;2022-07-29T11:10:53;25.30;96.90
3051;DHT22;1535;51.098;6.414;2022-07-29T11:13:45;25.20;96.90
3051;DHT22;1535;51.098;6.414;2022-07-29T11:16:13;25.10;96.60
3051;DHT22;1535;51.098;6.414;2022-07-29T11:21:44;25.40;96.50
3051;DHT22;1535;51.098;6.414;2022-07-29T11:24:13;25.90;96.30
3051;DHT22;1535;51.098;6.414;2022-07-29T11:26:40;25.70;97.40
3051;DHT22;1535;51.098;6.414;2022-07-29T11:29:16;25.30;97.90
3051;DHT22;1535;51.098;6.414;2022-07-29T11:31:46;25.00;99.00
3051;DHT22;1535;51.098;6.414;2022-07-29T11:34:18;25.00;97.80
3051;DHT22;1535;51.098;6.414;2022-07-29T11:37:21;24.60;99.10
3051;DHT22;1535;51.098;6.414;2022-07-29T11:40:14;24.40;99.00
3051;DHT22;1535;51.098;6.414;2022-07-29T11:42:44;24.80;99.40
3051;DHT22;1535;51.098;6.414;2022-07-29T11:45:13;24.90;99.10
3051;DHT22;1535;51.098;6.414;2022-07-29T11:47:46;25.30;99.30
3051;DHT22;1535;51.098;6.414;2022-07-29T11:50:15;26.10;97.50
3051;DHT22;1535;51.098;6.414;2022-07-29T11:52:46;27.10;96.30
3051;DHT22;1535;51.098;6.414;2022-07-29T11:55:15;27.20;95.70
3051;DHT22;1535;51.098;6.414;2022-07-29T11:57:47;27.20;95.20
3051;DHT22;1535;51.098;6.414;2022-07-29T12:00:22;26.80;95.00
3051;DHT22;1535;51.098;6.414;2022-07-29T12:02:49;26.90;94.60
3051;DHT22;1535;51.098;6.414;2022-07-29T12:05:17;27.10;95.70
3051;DHT22;1535;51.098;6.414;2022-07-29T12:07:45;27.30;95.40
3051;DHT22;1535;51.098;6.414;2022-07-29T12:10:13;27.80;96.10
3051;DHT22;1535;51.098;6.414;2022-07-29T12:12:40;28.80;94.80
3051;DHT22;1535;51.098;6.414;2022-07-29T12:15:15;29.50;93.50
3051;DHT22;1535;51.098;6.414;2022-07-29T12:17:43;29.80;92.50
3051;DHT22;1535;51.098;6.414;2022-07-29T12:20:10;29.60;89.20
3051;DHT22;1535;51.098;6.414;2022-07-29T12:22:39;29.10;90.70
3051;DHT22;1535;51.098;6.414;2022-07-29T12:25:10;29.70;90.60
3051;DHT22;1535;51.098;6.414;2022-07-29T12:27:37;29.90;87.70
3051;DHT22;1535;51.098;6.414;2022-07-29T12:30:06;29.60;88.00
3051;DHT22;1535;51.098;6.414;2022-07-29T12:32:35;29.80;87.80
3051;DHT22;1535;51.098;6.414;2022-07-29T12:35:04;30.00;87.40
3051;DHT22;1535;51.098;6.414;2022-07-29T12:37:32;30.00;85.20
3051;DHT22;1535;51.098;6.414;2022-07-29T12:39:59;30.00;84.70
3051;DHT22;1535;51.098;6.414;2022-07-29T12:42:27;30.30;84.60
3051;DHT22;1535;51.098;6.414;2022-07-29T12:44:55;30.30;86.20
3051;DHT22;1535;51.098;6.414;2022-07-29T12:47:22;30.50;86.10
3051;DHT22;1535;51.098;6.414;2022-07-29T12:49:49;30.30;83.30
3051;DHT22;1535;51.098;6.414;2022-07-29T12:52:27;30.70;82.70
3051;DHT22;1535;51.098;6.414;2022-07-29T12:54:54;30.70;82.20
3051;DHT22;1535;51.098;6.414;2022-07-29T12:57:21;30.80;80.50
3051;DHT22;1535;51.098;6.414;2022-07-29T13:00:06;30.60;82.30
3051;DHT22;1535;51.098;6.414;2022-07-29T13:02:35;30.50;80.30
3051;DHT22;1535;51.098;6.414;2022-07-29T13:05:02;30.40;80.30
3051;DHT22;1535;51.098;6.414;2022-07-29T13:07:30;30.20;81.20
3051;DHT22;1535;51.098;6.414;2022-07-29T13:10:11;30.10;81.40
3051;DHT22;1535;51.098;6.414;2022-07-29T13:12:38;29.60;83.90
3051;DHT22;1535;51.098;6.414;2022-07-29T13:15:14;29.70;83.00
3051;DHT22;1535;51.098;6.414;2022-07-29T13:17:42;29.90;80.20
3051;DHT22;1535;51.098;6.414;2022-07-29T13:20:11;30.10;81.20
3051;DHT22;1535;51.098;6.414;2022-07-29T13:22:40;30.80;77.20
3051;DHT22;1535;51.098;6.414;2022-07-29T13:25:08;31.70;76.90
3051;DHT22;1535;51.098;6.414;2022-07-29T13:27:37;31.80;73.90
3051;DHT22;1535;51.098;6.414;2022-07-29T13:30:06;31.50;74.00
3051;DHT22;1535;51.098;6.414;2022-07-29T13:32:35;31.40;73.80
3051;DHT22;1535;51.098;6.414;2022-07-29T13:35:05;31.20;73.30
3051;DHT22;1535;51.098;6.414;2022-07-29T13:37:32;31.00;71.30
3051;DHT22;1535;51.098;6.414;2022-07-29T13:40:01;30.50;73.30
3051;DHT22;1535;51.098;6.414;2022-07-29T13:42:31;29.90;74.50
3051;DHT22;1535;51.098;6.414;2022-07-29T13:44:58;29.20;74.10
3051;DHT22;1535;51.098;6.414;2022-07-29T13:47:25;29.80;73.00
3051;DHT22;1535;51.098;6.414;2022-07-29T13:49:54;30.30;73.90
3051;DHT22;1535;51.098;6.414;2022-07-29T13:52:22;30.00;70.30
3051;DHT22;1535;51.098;6.414;2022-07-29T13:54:49;29.80;70.10
3051;DHT22;1535;51.098;6.414;2022-07-29T13:57:16;30.50;69.20
3051;DHT22;1535;51.098;6.414;2022-07-29T13:59:43;30.80;68.40
3051;DHT22;1535;51.098;6.414;2022-07-29T14:02:11;31.30;66.50
3051;DHT22;1535;51.098;6.414;2022-07-29T14:04:40;31.10;66.50
3051;DHT22;1535;51.098;6.414;2022-07-29T14:07:08;30.20;64.20
3051;DHT22;1535;51.098;6.414;2022-07-29T14:09:36;29.90;61.90
3051;DHT22;1535;51.098;6.414;2022-07-29T14:12:03;30.10;66.70
3051;DHT22;1535;51.098;6.414;2022-07-29T14:14:30;31.00;66.00
3051;DHT22;1535;51.098;6.414;2022-07-29T14:16:58;31.90;63.00
3051;DHT22;1535;51.098;6.414;2022-07-29T14:19:25;32.30;56.10
3051;DHT22;1535;51.098;6.414;2022-07-29T14:21:52;32.70;54.30
3051;DHT22;1535;51.098;6.414;2022-07-29T14:24:20;32.50;53.50
3051;DHT22;1535;51.098;6.414;2022-07-29T14:26:47;32.30;54.10
3051;DHT22;1535;51.098;6.414;2022-07-29T14:29:14;31.60;54.60
3051;DHT22;1535;51.098;6.414;2022-07-29T14:31:41;30.90;56.90
3051;DHT22;1535;51.098;6.414;2022-07-29T14:34:08;31.30;57.40
3051;DHT22;1535;51.098;6.414;2022-07-29T14:36:35;31.80;56.20
3051;DHT22;1535;51.098;6.414;2022-07-29T14:39:02;31.60;55.70
3051;DHT22;1535;51.098;6.414;2022-07-29T14:41:30;31.00;54.50
3051;DHT22;1535;51.098;6.414;2022-07-29T14:43:57;30.80;56.30
3051;DHT22;1535;51.098;6.414;2022-07-29T14:46:26;30.70;56.20
3051;DHT22;1535;51.098;6.414;2022-07-29T14:48:53;30.40;56.90
3051;DHT22;1535;51.098;6.414;2022-07-29T14:51:20;30.60;56.80
3051;DHT22;1535;51.098;6.414;2022-07-29T14:53:47;31.40;54.80
3051;DHT22;1535;51.098;6.414;2022-07-29T14:56:14;31.10;55.20
3051;DHT22;1535;51.098;6.414;2022-07-29T14:58:42;30.70;55.40
3051;DHT22;1535;51.098;6.414;2022-07-29T15:01:09;30.80;56.90
3051;DHT22;1535;51.098;6.414;2022-07-29T15:03:36;31.30;57.40
3051;DHT22;1535;51.098;6.414;2022-07-29T15:06:03;31.00;56.50
3051;DHT22;1535;51.098;6.414;2022-07-29T15:08:30;30.30;58.50
3051;DHT22;1535;51.098;6.414;2022-07-29T15:10:57;30.20;59.40
3051;DHT22;1535;51.098;6.414;2022-07-29T15:13:26;30.40;60.80
3051;DHT22;1535;51.098;6.414;2022-07-29T15:15:56;31.30;58.50
3051;DHT22;1535;51.098;6.414;2022-07-29T15:18:23;32.00;58.30
3051;DHT22;1535;51.098;6.414;2022-07-29T15:20:49;32.40;57.10
3051;DHT22;1535;51.098;6.414;2022-07-29T15:23:16;31.40;57.70
3051;DHT22;1535;51.098;6.414;2022-07-29T15:25:43;31.10;58.20
3051;DHT22;1535;51.098;6.414;2022-07-29T15:28:10;30.80;58.90
3051;DHT22;1535;51.098;6.414;2022-07-29T15:30:37;30.70;59.40
3051;DHT22;1535;51.098;6.414;2022-07-29T15:33:08;30.30;60.70
3051;DHT22;1535;51.098;6.414;2022-07-29T15:35:36;30.10;60.00
3051;DHT22;1535;51.098;6.414;2022-07-29T15:38:03;30.10;62.90
3051;DHT22;1535;51.098;6.414;2022-07-29T15:40:30;30.60;64.00
3051;DHT22;1535;51.098;6.414;2022-07-29T15:42:58;30.20;63.80
3051;DHT22;1535;51.098;6.414;2022-07-29T15:45:35;30.40;64.70
3051;DHT22;1535;51.098;6.414;2022-07-29T15:50:45;30.40;63.00
3051;DHT22;1535;51.098;6.414;2022-07-29T15:53:12;29.80;65.60
3051;DHT22;1535;51.098;6.414;2022-07-29T15:55:39;30.10;64.80
3051;DHT22;1535;51.098;6.414;2022-07-29T15:58:06;30.50;64.20
3051;DHT22;1535;51.098;6.414;2022-07-29T16:00:32;30.90;64.40
3051;DHT22;1535;51.098;6.414;2022-07-29T16:03:00;31.10;62.80
3051;DHT22;1535;51.098;6.414;2022-07-29T16:05:28;31.00;63.20
3051;DHT22;1535;51.098;6.414;2022-07-29T16:07:57;31.40;62.80
3051;DHT22;1535;51.098;6.414;2022-07-29T16:10:25;32.10;61.50
3051;DHT22;1535;51.098;6.414;2022-07-29T16:12:52;32.10;61.60
3051;DHT22;1535;51.098;6.414;2022-07-29T16:15:19;33.10;59.70
3051;DHT22;1535;51.098;6.414;2022-07-29T16:17:46;33.70;58.50
3051;DHT22;1535;51.098;6.414;2022-07-29T16:20:15;33.40;57.60